Time;durP1;ratioP1;P1;durP2;ratioP2;P2;SDS_P1;SDS_P2;PMS_P1;PMS_P2;Temp;Humidity;BMP_temperature;BMP_pressure;BME280_temperature;BME280_humidity;BME280_pressure;Samples;Min_cycle;Max_cycle;Signal;HPM_P1;HPM_P2
2022/09/24 00:02:00;;;;;;;2.90;1.85;;;22.30;51.10;;;;;;5059299;28;20402;-44
2022/09/24 00:04:26;;;;;;;3.05;2.13;;;22.30;51.10;;;;;;5048918;28;20029;-44
2022/09/24 00:06:52;;;;;;;3.55;1.80;;;22.20;51.00;;;;;;5053676;28;20494;-51
2022/09/24 00:09:20;;;;;;;3.65;2.08;;;22.20;51.10;;;;;;5051044;28;20036;-45
2022/09/24 00:11:48;;;;;;;3.15;1.80;;;22.20;51.10;;;;;;5053600;28;20043;-45
2022/09/24 00:14:15;;;;;;;3.47;1.90;;;22.20;51.70;;;;;;5054042;27;20107;-43
2022/09/24 00:16:42;;;;;;;2.30;1.60;;;22.20;51.10;;;;;;5039600;28;20046;-45
2022/09/24 00:19:09;;;;;;;2.92;1.85;;;22.20;51.10;;;;;;5042956;28;20060;-43
2022/09/24 00:21:36;;;;;;;3.17;1.80;;;22.20;51.10;;;;;;5047882;28;20528;-45
2022/09/24 00:24:05;;;;;;;2.17;1.90;;;22.20;51.10;;;;;;5050877;28;20037;-46
2022/09/24 00:26:49;;;;;;;2.95;2.00;;;22.20;51.10;;;;;;5040267;28;20128;-44
2022/09/24 00:29:20;;;;;;;2.55;1.88;;;22.20;51.10;;;;;;5051202;28;20024;-44
2022/09/24 00:31:46;;;;;;;3.15;1.77;;;22.20;51.10;;;;;;5045771;28;20025;-45
2022/09/24 00:34:12;;;;;;;3.05;1.88;;;22.20;51.10;;;;;;5033539;28;20124;-44
2022/09/24 00:36:38;;;;;;;2.65;1.75;;;22.20;51.10;;;;;;5044271;28;20107;-44
2022/09/24 00:39:04;;;;;;;3.47;2.00;;;22.20;51.10;;;;;;5047058;28;20029;-45
2022/09/24 00:41:33;;;;;;;3.35;2.17;;;22.20;51.10;;;;;;5044231;28;20060;-44
2022/09/24 00:43:59;;;;;;;4.13;2.10;;;22.20;51.10;;;;;;5051130;28;20064;-44
2022/09/24 00:46:38;;;;;;;3.33;2.00;;;22.20;51.20;;;;;;5041410;28;20032;-44
2022/09/24 00:49:16;;;;;;;3.05;2.03;;;22.20;51.10;;;;;;5032910;28;20455;-44
2022/09/24 00:51:45;;;;;;;4.68;1.80;;;22.20;51.10;;;;;;5033902;28;20025;-45
2022/09/24 00:54:16;;;;;;;3.72;1.95;;;22.20;51.10;;;;;;5036825;28;20032;-44
2022/09/24 00:56:42;;;;;;;2.65;1.85;;;22.20;51.10;;;;;;5035349;28;20548;-44
2022/09/24 00:59:12;;;;;;;2.83;1.90;;;22.20;51.10;;;;;;5033804;28;20426;-44
2022/09/24 01:01:38;;;;;;;2.15;1.70;;;22.20;51.10;;;;;;5033396;28;20052;-45
2022/09/24 01:04:05;;;;;;;4.13;2.60;;;22.20;51.10;;;;;;5034636;28;20080;-46
2022/09/24 01:06:31;;;;;;;4.10;2.00;;;22.20;51.10;;;;;;5033249;28;20056;-44
2022/09/24 01:08:58;;;;;;;2.72;1.98;;;22.20;51.20;;;;;;5040093;28;20068;-51
2022/09/24 01:12:02;;;;;;;2.30;1.60;;;22.20;51.10;;;;;;5033131;28;20032;-43
2022/09/24 01:14:52;;;;;;;3.90;2.03;;;22.20;51.20;;;;;;4995314;28;20053;-44
2022/09/24 01:17:26;;;;;;;2.47;1.67;;;22.20;51.20;;;;;;5025141;28;20128;-43
2022/09/24 01:20:07;;;;;;;3.38;2.00;;;22.20;51.10;;;;;;5032914;28;20490;-44
2022/09/24 01:23:21;;;;;;;3.35;2.00;;;22.20;51.20;;;;;;5031772;28;20471;-44
2022/09/24 01:26:10;;;;;;;2.58;1.80;;;22.20;51.10;;;;;;5008300;28;20076;-44
2022/09/24 01:29:04;;;;;;;2.92;1.92;;;22.20;51.20;;;;;;5032421;28;20032;-44
2022/09/24 01:31:42;;;;;;;2.28;1.60;;;22.20;51.20;;;;;;5029778;28;20017;-45
2022/09/24 01:34:13;;;;;;;3.13;1.80;;;22.20;51.20;;;;;;5023295;28;20033;-45
2022/09/24 01:36:41;;;;;;;4.70;1.95;;;22.20;51.20;;;;;;5051302;28;20033;-44
2022/09/24 01:39:07;;;;;;;2.85;1.77;;;22.20;51.20;;;;;;5051594;28;21681;-45
2022/09/24 01:41:35;;;;;;;3.95;2.85;;;22.20;51.20;;;;;;5052131;28;20040;-45
2022/09/24 01:44:05;;;;;;;3.17;2.00;;;22.20;51.20;;;;;;5050979;28;20119;-45
2022/09/24 01:46:31;;;;;;;2.13;1.63;;;22.20;51.20;;;;;;5041461;28;20036;-45
2022/09/24 01:48:57;;;;;;;2.50;1.55;;;22.20;51.20;;;;;;5051765;28;20033;-52
2022/09/24 01:51:44;;;;;;;2.75;1.83;;;22.10;51.20;;;;;;5051695;28;20040;-44
2022/09/24 01:54:27;;;;;;;3.22;2.20;;;22.20;51.20;;;;;;5051249;28;20029;-44
2022/09/24 01:57:15;;;;;;;2.95;1.85;;;22.20;51.20;;;;;;5051548;28;20037;-45
2022/09/24 01:59:58;;;;;;;3.42;1.90;;;22.20;51.20;;;;;;5046977;28;20041;-44
2022/09/24 02:03:04;;;;;;;2.15;1.42;;;22.20;51.20;;;;;;5050147;28;20119;-44
2022/09/24 02:05:35;;;;;;;2.22;1.80;;;22.20;51.20;;;;;;5021854;28;20486;-44
2022/09/24 02:08:08;;;;;;;2.10;1.70;;;22.20;51.20;;;;;;5051257;28;20029;-53
2022/09/24 02:10:45;;;;;;;3.47;2.13;;;22.20;51.20;;;;;;5044366;28;20032;-48
2022/09/24 02:13:13;;;;;;;2.72;1.90;;;22.20;51.20;;;;;;5050955;28;20246;-47
2022/09/24 02:15:44;;;;;;;2.75;1.95;;;22.20;51.20;;;;;;5049972;28;20029;-48
2022/09/24 02:18:14;;;;;;;2.53;1.75;;;22.20;51.20;;;;;;5046769;28;20035;-46
2022/09/24 02:20:42;;;;;;;2.35;1.63;;;22.20;51.20;;;;;;5043410;28;20033;-46
2022/09/24 02:23:10;;;;;;;2.95;2.28;;;22.20;51.20;;;;;;5050638;28;20036;-46
2022/09/24 02:25:54;;;;;;;3.47;2.30;;;22.20;51.20;;;;;;5042596;28;20116;-47
2022/09/24 02:28:20;;;;;;;3.50;2.17;;;22.20;51.20;;;;;;5049964;28;20507;-46
2022/09/24 02:31:07;;;;;;;2.63;1.65;;;22.20;51.20;;;;;;5051304;28;20104;-47
2022/09/24 02:36:19;;;;;;;2.50;1.70;;;22.20;51.20;;;;;;5048854;28;20097;-48
2022/09/24 02:38:47;;;;;;;4.47;1.90;;;22.20;51.20;;;;;;5050975;28;20041;-45
2022/09/24 02:41:14;;;;;;;2.80;1.88;;;22.20;51.20;;;;;;5050594;28;20040;-46
2022/09/24 02:43:39;;;;;;;2.97;1.60;;;22.20;51.20;;;;;;5051077;28;20154;-45
2022/09/24 02:46:08;;;;;;;3.28;1.90;;;22.20;51.30;;;;;;5049921;28;20443;-51
2022/09/24 02:48:37;;;;;;;2.10;1.77;;;22.20;51.20;;;;;;5051239;28;20028;-47
2022/09/24 02:51:04;;;;;;;2.30;1.80;;;22.20;51.20;;;;;;5050792;28;20029;-54
2022/09/24 02:53:30;;;;;;;3.40;1.60;;;22.10;51.20;;;;;;5049471;28;20068;-48
2022/09/24 02:55:57;;;;;;;2.30;1.80;;;22.20;51.30;;;;;;5042310;28;20029;-48
2022/09/24 02:58:24;;;;;;;3.38;1.80;;;22.20;51.40;;;;;;5048500;28;20108;-46
2022/09/24 03:00:49;;;;;;;2.38;1.63;;;22.20;51.20;;;;;;5053833;28;20044;-48
2022/09/24 03:03:15;;;;;;;4.70;1.80;;;22.20;51.40;;;;;;5053083;28;20025;-46
2022/09/24 03:05:40;;;;;;;2.85;2.30;;;22.20;51.40;;;;;;5053693;28;20061;-44
2022/09/24 03:08:06;;;;;;;2.92;1.50;;;22.20;51.40;;;;;;5053193;28;20429;-48
2022/09/24 03:10:32;;;;;;;1.83;1.40;;;22.20;51.30;;;;;;5051088;28;20125;-46
2022/09/24 03:12:58;;;;;;;2.33;1.60;;;22.20;51.40;;;;;;5048550;28;20049;-45
2022/09/24 03:15:24;;;;;;;3.20;1.88;;;22.10;51.40;;;;;;5041641;28;20112;-44
2022/09/24 03:17:50;;;;;;;2.35;1.67;;;22.20;51.40;;;;;;5035495;28;20112;-44
2022/09/24 03:20:16;;;;;;;2.25;2.00;;;22.10;51.40;;;;;;5031257;28;20108;-44
2022/09/24 03:22:42;;;;;;;3.70;2.05;;;22.10;51.40;;;;;;5026844;28;20486;-47
2022/09/24 03:25:09;;;;;;;2.13;1.35;;;22.10;51.40;;;;;;5033828;28;20022;-46
2022/09/24 03:27:35;;;;;;;2.80;1.98;;;22.10;51.40;;;;;;5028413;28;20025;-44
2022/09/24 03:32:47;;;;;;;2.75;1.92;;;22.20;51.50;;;;;;5029624;28;20449;-45
2022/09/24 03:35:14;;;;;;;2.47;1.60;;;22.10;51.40;;;;;;5025214;28;20026;-49
2022/09/24 03:37:41;;;;;;;2.90;1.80;;;22.10;51.40;;;;;;5037343;28;20037;-47
2022/09/24 03:40:08;;;;;;;2.83;2.13;;;22.10;51.40;;;;;;5034828;28;20022;-48
2022/09/24 03:42:33;;;;;;;3.88;2.00;;;22.10;51.40;;;;;;5043671;28;20029;-54
2022/09/24 03:44:59;;;;;;;2.67;1.77;;;22.10;51.50;;;;;;5027610;28;20394;-45
2022/09/24 03:47:24;;;;;;;2.85;1.70;;;22.10;51.40;;;;;;5032606;28;20029;-44
2022/09/24 03:49:50;;;;;;;2.78;1.70;;;22.10;51.40;;;;;;5043293;28;20029;-44
2022/09/24 03:52:16;;;;;;;3.83;1.90;;;22.10;52.10;;;;;;5040330;28;20084;-44
2022/09/24 03:54:41;;;;;;;5.75;1.63;;;22.10;51.40;;;;;;5034443;28;20060;-44
2022/09/24 03:57:07;;;;;;;3.35;2.15;;;22.10;51.40;;;;;;5035151;28;20038;-46
2022/09/24 03:59:33;;;;;;;2.03;1.75;;;22.10;51.40;;;;;;5038564;28;20033;-46
2022/09/24 04:01:58;;;;;;;3.47;1.73;;;22.10;51.40;;;;;;5035675;28;20102;-46
2022/09/24 04:04:24;;;;;;;3.30;2.00;;;22.10;51.40;;;;;;5053081;28;20024;-44
2022/09/24 04:06:51;;;;;;;2.53;1.75;;;22.10;51.40;;;;;;5017770;28;20037;-44
2022/09/24 04:09:17;;;;;;;2.70;1.73;;;22.10;51.40;;;;;;5038150;28;20485;-47
2022/09/24 04:11:43;;;;;;;3.00;1.80;;;22.10;51.40;;;;;;5034252;28;20029;-44
2022/09/24 04:14:09;;;;;;;2.25;1.77;;;22.10;51.40;;;;;;5033969;28;20502;-47
2022/09/24 04:16:35;;;;;;;2.83;2.00;;;22.10;51.40;;;;;;5034496;28;20060;-46
2022/09/24 04:19:00;;;;;;;4.18;2.15;;;22.10;51.40;;;;;;5030099;28;20124;-48
2022/09/24 04:21:26;;;;;;;2.55;1.75;;;22.10;51.50;;;;;;5036536;28;20124;-44
2022/09/24 04:23:52;;;;;;;2.55;1.70;;;22.10;51.40;;;;;;5047147;28;20447;-42
2022/09/24 04:26:17;;;;;;;2.78;1.95;;;22.10;51.40;;;;;;5044569;28;20482;-45
2022/09/24 04:28:43;;;;;;;2.55;1.95;;;22.10;51.40;;;;;;5040100;28;20044;-48
2022/09/24 04:31:08;;;;;;;3.45;2.08;;;22.10;51.40;;;;;;5050130;28;20037;-46
2022/09/24 04:33:34;;;;;;;2.13;1.48;;;22.10;51.50;;;;;;5053138;28;20401;-44
2022/09/24 04:36:00;;;;;;;2.03;1.80;;;22.10;51.40;;;;;;5034572;28;20075;-43
2022/09/24 04:38:25;;;;;;;2.83;1.63;;;22.10;51.40;;;;;;5030268;28;20037;-44
2022/09/24 04:40:51;;;;;;;2.85;1.95;;;22.10;51.40;;;;;;5047991;28;20116;-45
2022/09/24 04:43:17;;;;;;;2.65;1.70;;;22.10;51.50;;;;;;5039359;28;20040;-43
2022/09/24 04:45:44;;;;;;;2.83;1.70;;;22.10;51.40;;;;;;5016009;28;20033;-44
2022/09/24 04:48:10;;;;;;;2.13;1.38;;;22.10;51.40;;;;;;5035072;28;20037;-44
2022/09/24 04:50:38;;;;;;;2.60;2.10;;;22.10;51.50;;;;;;5044829;28;20074;-44
2022/09/24 04:53:03;;;;;;;2.72;1.60;;;22.10;51.50;;;;;;5036636;28;20029;-44
2022/09/24 04:55:30;;;;;;;2.60;1.70;;;22.10;51.50;;;;;;5033133;28;20455;-44
2022/09/24 04:57:56;;;;;;;2.83;1.85;;;22.10;51.50;;;;;;5041069;28;20033;-44
2022/09/24 05:00:22;;;;;;;3.15;1.92;;;22.10;51.50;;;;;;5033377;28;20292;-45
2022/09/24 05:02:56;;;;;;;3.42;2.25;;;22.10;51.40;;;;;;5052320;28;20486;-49
2022/09/24 05:05:22;;;;;;;4.70;1.80;;;22.10;51.50;;;;;;5045455;28;20048;-50
2022/09/24 05:07:48;;;;;;;3.30;1.98;;;22.10;51.50;;;;;;5033230;28;20467;-44
2022/09/24 05:10:13;;;;;;;1.67;1.40;;;22.10;51.50;;;;;;5031714;28;20029;-44
2022/09/24 05:12:40;;;;;;;2.40;1.70;;;22.10;51.50;;;;;;5039538;28;20118;-44
2022/09/24 05:15:06;;;;;;;2.38;1.80;;;22.10;51.50;;;;;;5052170;28;20458;-49
2022/09/24 05:17:31;;;;;;;2.60;1.70;;;22.10;51.40;;;;;;5051878;28;20029;-44
2022/09/24 05:19:58;;;;;;;1.98;1.70;;;22.10;51.50;;;;;;5052586;28;20029;-44
2022/09/24 05:22:27;;;;;;;2.17;1.70;;;22.10;51.50;;;;;;5044577;28;20033;-44
2022/09/24 05:24:53;;;;;;;3.10;1.60;;;22.10;51.50;;;;;;5050987;28;20091;-47
2022/09/24 05:27:20;;;;;;;2.70;1.63;;;22.10;51.50;;;;;;5052615;28;20455;-46
2022/09/24 05:29:46;;;;;;;2.58;2.00;;;22.10;51.50;;;;;;5052709;28;20513;-44
2022/09/24 05:32:15;;;;;;;3.60;2.17;;;22.10;51.50;;;;;;5048274;28;20049;-44
2022/09/24 05:34:42;;;;;;;2.95;1.90;;;22.10;51.50;;;;;;5052050;28;20082;-43
2022/09/24 05:37:08;;;;;;;2.38;1.75;;;22.10;51.50;;;;;;5041952;28;20488;-52
2022/09/24 05:39:34;;;;;;;3.60;2.22;;;22.10;51.50;;;;;;5060718;28;20029;-44
2022/09/24 05:42:02;;;;;;;2.72;1.50;;;22.10;51.60;;;;;;5033625;28;20105;-45
2022/09/24 05:44:28;;;;;;;5.70;2.05;;;22.10;52.10;;;;;;5044789;28;20029;-44
2022/09/24 05:46:54;;;;;;;6.00;2.38;;;22.10;52.10;;;;;;5049675;28;20036;-44
2022/09/24 05:49:19;;;;;;;4.20;1.90;;;22.20;52.30;;;;;;5050909;28;20022;-44
2022/09/24 05:51:48;;;;;;;2.63;2.10;;;22.20;52.30;;;;;;5051302;28;20104;-44
2022/09/24 05:54:13;;;;;;;2.40;1.40;;;22.20;52.30;;;;;;5036291;28;20033;-44
2022/09/24 05:56:39;;;;;;;2.95;1.65;;;22.20;52.30;;;;;;5051899;28;20036;-46
2022/09/24 05:59:04;;;;;;;4.05;2.15;;;22.20;52.40;;;;;;5051849;28;20029;-44
2022/09/24 06:01:30;;;;;;;2.28;1.67;;;22.20;52.30;;;;;;5051183;28;20481;-44
2022/09/24 06:03:56;;;;;;;3.72;2.50;;;22.20;51.80;;;;;;5051408;28;20127;-44
2022/09/24 06:06:23;;;;;;;4.45;3.08;;;22.20;50.90;;;;;;5048026;28;20036;-45
2022/09/24 06:08:49;;;;;;;4.28;2.88;;;22.20;50.60;;;;;;5051945;28;20079;-45
2022/09/24 06:11:14;;;;;;;8.75;2.90;;;22.10;50.40;;;;;;5047960;28;20021;-44
2022/09/24 06:13:40;;;;;;;5.57;3.83;;;22.10;50.40;;;;;;5050854;28;20383;-44
2022/09/24 06:16:07;;;;;;;5.03;2.70;;;22.10;50.30;;;;;;5051940;28;20112;-46
2022/09/24 06:18:41;;;;;;;5.88;2.90;;;22.10;50.30;;;;;;5050644;28;20039;-45
2022/09/24 06:21:09;;;;;;;4.47;3.53;;;22.00;50.20;;;;;;5053804;28;20025;-44
2022/09/24 06:23:36;;;;;;;4.55;2.92;;;22.00;50.20;;;;;;5056776;28;20029;-44
2022/09/24 06:26:02;;;;;;;4.63;3.38;;;22.00;50.10;;;;;;5048735;28;20098;-44
2022/09/24 06:28:27;;;;;;;4.63;2.88;;;22.00;50.10;;;;;;5052823;28;20119;-44
2022/09/24 06:30:53;;;;;;;6.25;2.83;;;22.00;50.10;;;;;;5058978;28;20082;-47
2022/09/24 06:33:19;;;;;;;4.45;3.47;;;22.00;50.10;;;;;;5066431;28;20033;-44
2022/09/24 06:35:47;;;;;;;5.78;2.97;;;22.00;50.10;;;;;;5060181;28;20033;-47
2022/09/24 06:38:15;;;;;;;8.15;3.70;;;22.00;50.00;;;;;;5052338;28;20035;-55
2022/09/24 06:40:44;;;;;;;4.47;3.35;;;22.00;50.00;;;;;;5036373;28;20424;-47
2022/09/24 06:43:11;;;;;;;4.88;3.42;;;22.00;50.00;;;;;;5055091;28;20120;-44
2022/09/24 06:45:37;;;;;;;4.60;3.00;;;22.00;50.20;;;;;;5047545;28;20017;-45
2022/09/24 06:48:04;;;;;;;8.80;4.43;;;21.80;50.10;;;;;;5054218;28;20036;-49
2022/09/24 06:50:33;;;;;;;4.55;3.22;;;21.70;50.30;;;;;;5050090;28;20029;-46
2022/09/24 06:52:58;;;;;;;5.18;3.65;;;21.60;50.70;;;;;;5047519;28;20390;-45
2022/09/24 06:55:24;;;;;;;7.68;3.90;;;21.50;51.00;;;;;;5050774;28;20033;-44
2022/09/24 06:57:59;;;;;;;5.65;3.65;;;21.50;51.20;;;;;;5057359;28;20032;-43
2022/09/24 07:00:25;;;;;;;6.18;3.00;;;21.60;50.70;;;;;;5031258;28;20487;-43
2022/09/24 07:02:51;;;;;;;6.78;2.80;;;21.80;50.40;;;;;;5046149;28;20065;-47
2022/09/24 07:05:16;;;;;;;6.13;2.80;;;22.00;50.50;;;;;;5047092;28;20033;-44
2022/09/24 07:07:42;;;;;;;7.43;2.88;;;22.00;50.70;;;;;;5053543;28;20066;-44
2022/09/24 07:10:09;;;;;;;5.28;2.90;;;22.10;50.80;;;;;;5050659;28;20033;-44
2022/09/24 07:12:35;;;;;;;5.07;2.42;;;22.20;50.80;;;;;;5066658;28;20056;-45
2022/09/24 07:15:01;;;;;;;6.80;2.60;;;22.20;50.80;;;;;;5064713;28;20044;-46
2022/09/24 07:17:28;;;;;;;4.35;2.17;;;22.20;50.80;;;;;;5055588;28;20041;-45
2022/09/24 07:19:54;;;;;;;2.63;2.20;;;22.30;50.90;;;;;;5057574;28;20028;-46
2022/09/24 07:22:24;;;;;;;4.85;2.50;;;22.20;51.00;;;;;;5057477;28;20057;-46
2022/09/24 07:24:49;;;;;;;3.40;2.60;;;22.30;51.20;;;;;;5051279;28;20430;-45
2022/09/24 07:27:15;;;;;;;4.55;2.35;;;22.30;51.20;;;;;;5050756;28;20067;-45
2022/09/24 07:29:41;;;;;;;2.65;2.20;;;22.30;51.20;;;;;;5057560;28;20036;-49
2022/09/24 07:32:07;;;;;;;3.97;2.55;;;22.30;51.20;;;;;;5052900;28;20119;-45
2022/09/24 07:34:32;;;;;;;4.93;2.97;;;22.30;51.30;;;;;;5045040;28;20043;-45
2022/09/24 07:36:58;;;;;;;5.78;2.42;;;22.30;51.30;;;;;;5050854;28;20087;-45
2022/09/24 07:39:24;;;;;;;9.48;3.00;;;22.20;51.50;;;;;;5046725;28;20040;-49
2022/09/24 07:41:51;;;;;;;4.45;2.47;;;22.30;51.80;;;;;;5053410;28;20584;-50
2022/09/24 07:44:21;;;;;;;4.70;2.55;;;22.30;52.20;;;;;;5049799;28;20025;-47
2022/09/24 07:46:51;;;;;;;6.43;2.83;;;22.40;52.10;;;;;;5049745;28;20033;-49
2022/09/24 07:49:17;;;;;;;4.72;2.25;;;22.40;51.90;;;;;;5061835;28;20355;-46
2022/09/24 07:51:42;;;;;;;8.45;3.38;;;22.50;52.00;;;;;;5044414;28;20167;-47
2022/09/24 07:54:09;;;;;;;5.60;2.72;;;22.50;52.00;;;;;;5052464;28;20056;-47
2022/09/24 07:56:35;;;;;;;7.57;2.78;;;22.60;52.20;;;;;;5052259;28;20024;-55
2022/09/24 07:59:00;;;;;;;13.77;3.03;;;22.60;52.60;;;;;;5062230;28;20057;-46
2022/09/24 08:01:26;;;;;;;7.90;2.50;;;22.60;53.20;;;;;;5047277;28;20157;-54
2022/09/24 08:03:52;;;;;;;10.82;2.78;;;22.60;54.10;;;;;;5048622;28;20048;-50
2022/09/24 08:06:21;;;;;;;9.23;2.88;;;22.60;53.50;;;;;;5051862;28;20021;-48
2022/09/24 08:08:49;;;;;;;7.28;2.70;;;22.60;53.20;;;;;;5056705;28;20044;-44
2022/09/24 08:11:16;;;;;;;10.73;2.63;;;22.60;53.40;;;;;;5069676;28;20071;-50
2022/09/24 08:13:41;;;;;;;18.52;4.18;;;22.60;53.90;;;;;;5051459;28;20044;-46
2022/09/24 08:16:07;;;;;;;6.80;2.58;;;22.60;54.00;;;;;;5053665;28;20429;-49
2022/09/24 08:18:33;;;;;;;7.65;2.63;;;22.60;53.90;;;;;;5054063;28;20503;-44
2022/09/24 08:21:03;;;;;;;6.80;2.50;;;22.60;53.80;;;;;;5054721;28;20025;-46
2022/09/24 08:23:30;;;;;;;12.80;3.08;;;22.60;53.80;;;;;;5047307;28;20112;-46
2022/09/24 08:25:56;;;;;;;10.63;2.60;;;22.60;53.90;;;;;;5057289;28;20090;-49
2022/09/24 08:28:21;;;;;;;10.05;3.45;;;22.70;54.10;;;;;;5054722;28;20041;-49
2022/09/24 08:30:47;;;;;;;5.60;2.42;;;22.70;54.30;;;;;;5060328;28;20056;-51
2022/09/24 08:33:14;;;;;;;4.63;2.58;;;22.70;54.30;;;;;;5057267;28;20068;-46
2022/09/24 08:35:39;;;;;;;6.90;2.55;;;22.70;54.20;;;;;;5052538;28;20033;-50
2022/09/24 08:38:05;;;;;;;10.40;3.63;;;22.70;54.70;;;;;;5044243;28;20049;-48
2022/09/24 08:40:37;;;;;;;5.75;2.47;;;22.70;56.00;;;;;;5049395;28;20116;-46
2022/09/24 08:43:25;;;;;;;8.13;2.75;;;22.80;55.70;;;;;;5050225;28;20152;-49
2022/09/24 08:48:49;;;;;;;5.93;2.45;;;22.90;54.90;;;;;;5052012;28;20052;-45
2022/09/24 08:51:17;;;;;;;9.75;2.97;;;22.80;54.50;;;;;;5051221;28;20025;-45
2022/09/24 08:53:59;;;;;;;4.40;2.67;;;22.80;54.50;;;;;;5059343;28;20036;-42
2022/09/24 08:56:28;;;;;;;5.93;2.95;;;22.80;54.60;;;;;;5056705;28;20025;-45
2022/09/24 08:59:00;;;;;;;4.97;2.70;;;22.80;54.40;;;;;;5064990;28;20045;-55
2022/09/24 09:01:46;;;;;;;3.60;2.42;;;22.80;54.80;;;;;;5049603;28;20112;-51
2022/09/24 09:04:36;;;;;;;9.13;2.97;;;22.80;54.70;;;;;;5032965;28;20049;-49
2022/09/24 09:07:19;;;;;;;11.20;3.05;;;22.80;54.80;;;;;;5038020;28;20425;-59
2022/09/24 09:10:01;;;;;;;8.77;3.75;;;22.80;54.70;;;;;;5053183;28;20124;-42
2022/09/24 09:12:36;;;;;;;8.38;3.08;;;23.00;54.70;;;;;;5041488;28;20120;-41
2022/09/24 09:15:19;;;;;;;6.10;2.95;;;23.10;54.30;;;;;;5045752;28;20032;-40
2022/09/24 09:18:13;;;;;;;7.25;2.83;;;23.10;53.90;;;;;;5049491;28;20166;-42
2022/09/24 09:20:42;;;;;;;5.72;2.75;;;23.10;54.10;;;;;;5050828;28;20415;-41
2022/09/24 09:23:27;;;;;;;8.07;2.80;;;23.00;54.30;;;;;;5048256;28;20090;-40
2022/09/24 09:25:58;;;;;;;9.43;3.83;;;23.00;54.40;;;;;;5048727;28;20060;-40
2022/09/24 09:28:26;;;;;;;7.38;3.10;;;23.00;54.50;;;;;;5066512;28;20033;-54
2022/09/24 09:31:32;;;;;;;8.38;3.05;;;23.00;54.90;;;;;;5053381;28;20462;-48
2022/09/24 09:34:37;;;;;;;7.88;3.35;;;22.90;54.70;;;;;;5026734;28;20072;-46
2022/09/24 09:37:17;;;;;;;14.32;3.47;;;22.90;56.10;;;;;;5027220;28;20032;-44
2022/09/24 09:40:08;;;;;;;6.40;3.17;;;22.80;55.70;;;;;;5059646;28;20033;-43
2022/09/24 09:42:37;;;;;;;15.17;3.47;;;22.80;55.40;;;;;;5070067;28;20028;-59
2022/09/24 09:45:21;;;;;;;13.68;3.30;;;22.80;56.10;;;;;;5043131;28;20119;-53
2022/09/24 09:47:52;;;;;;;11.52;3.97;;;22.80;56.50;;;;;;5048493;28;20030;-47
2022/09/24 09:50:36;;;;;;;6.43;2.88;;;22.80;55.70;;;;;;5054781;28;20074;-47
2022/09/24 09:53:04;;;;;;;10.48;3.20;;;22.80;55.70;;;;;;5051692;28;20020;-52
2022/09/24 09:55:36;;;;;;;9.05;3.05;;;22.80;55.60;;;;;;5051404;28;20025;-57
2022/09/24 09:58:23;;;;;;;14.95;3.15;;;22.80;55.80;;;;;;5067542;28;20499;-58
2022/09/24 10:00:50;;;;;;;9.43;3.22;;;22.80;56.40;;;;;;5049292;28;20433;-58
2022/09/24 10:03:38;;;;;;;13.25;3.90;;;22.80;56.10;;;;;;5051858;28;20050;-58
2022/09/24 10:06:06;;;;;;;25.98;4.38;;;22.80;55.80;;;;;;5059701;28;20028;-59
2022/09/24 10:08:31;;;;;;;7.22;3.25;;;22.80;55.80;;;;;;5049736;28;20033;-59
2022/09/24 10:10:59;;;;;;;9.18;3.88;;;22.80;56.50;;;;;;5068585;28;20036;-61
2022/09/24 10:13:26;;;;;;;10.80;3.35;;;22.70;56.90;;;;;;5049589;28;20076;-60
2022/09/24 10:16:04;;;;;;;5.30;2.88;;;22.70;57.10;;;;;;5051732;28;20108;-59
2022/09/24 10:18:33;;;;;;;8.95;3.22;;;22.70;57.30;;;;;;5050317;28;20039;-58
2022/09/24 10:21:02;;;;;;;5.95;3.25;;;22.60;57.30;;;;;;5053701;28;20116;-59
2022/09/24 10:23:35;;;;;;;9.23;3.05;;;22.60;57.20;;;;;;5049002;28;20028;-59
2022/09/24 10:26:02;;;;;;;10.32;2.90;;;22.60;57.80;;;;;;5063747;28;20839;-60
2022/09/24 10:31:20;;;;;;;8.77;3.25;;;22.60;57.00;;;;;;5050561;28;20155;-58
2022/09/24 10:33:49;;;;;;;7.72;2.42;;;22.60;57.20;;;;;;5045834;28;20040;-58
2022/09/24 10:36:22;;;;;;;11.07;3.05;;;22.60;57.00;;;;;;5051542;28;20040;-56
2022/09/24 10:38:48;;;;;;;5.00;2.00;;;22.60;59.40;;;;;;5052157;28;20037;-62
2022/09/24 10:41:26;;;;;;;9.27;2.25;;;22.60;57.90;;;;;;5067118;28;20036;-61
2022/09/24 10:43:54;;;;;;;8.20;3.03;;;22.70;57.40;;;;;;5040721;28;20048;-59
2022/09/24 10:46:44;;;;;;;13.10;2.67;;;22.70;57.50;;;;;;5050363;28;20037;-59
2022/09/24 10:49:31;;;;;;;4.30;2.03;;;22.70;57.80;;;;;;5047961;28;20037;-58
2022/09/24 10:52:21;;;;;;;10.90;2.88;;;22.70;57.90;;;;;;5049674;28;20037;-56
2022/09/24 10:55:21;;;;;;;9.45;2.65;;;22.70;57.80;;;;;;5045142;28;20033;-49
2022/09/24 10:57:55;;;;;;;6.05;2.13;;;;;;;;;;5046169;28;20139;-48
2022/09/24 11:00:23;;;;;;;4.55;2.33;;;22.80;57.30;;;;;;5049700;28;20032;-46
2022/09/24 11:02:58;;;;;;;16.23;2.10;;;22.80;57.40;;;;;;5048283;28;20422;-46
2022/09/24 11:05:30;;;;;;;8.23;3.35;;;22.90;57.20;;;;;;5051028;28;20025;-45
2022/09/24 11:08:04;;;;;;;9.50;2.10;;;23.00;57.20;;;;;;5056853;28;20041;-47
2022/09/24 11:10:35;;;;;;;4.72;2.10;;;22.90;56.80;;;;;;5057821;28;20524;-45
2022/09/24 11:13:14;;;;;;;3.15;2.20;;;22.90;56.70;;;;;;5041844;28;20056;-49
2022/09/24 11:15:54;;;;;;;4.20;2.10;;;22.90;56.80;;;;;;5048437;28;20037;-45
2022/09/24 11:18:39;;;;;;;4.43;2.15;;;22.90;56.80;;;;;;5055525;28;20102;-47
2022/09/24 11:21:33;;;;;;;9.07;1.85;;;22.80;56.80;;;;;;5059699;28;20438;-49
2022/09/24 11:24:01;;;;;;;3.78;1.90;;;22.80;56.70;;;;;;5062672;28;20472;-47
2022/09/24 11:26:39;;;;;;;5.00;2.33;;;22.90;56.80;;;;;;5058029;28;20035;-44
2022/09/24 11:29:52;;;;;;;9.70;2.30;;;22.90;56.80;;;;;;5055658;28;20037;-52
2022/09/24 11:32:33;;;;;;;6.63;2.03;;;22.90;57.00;;;;;;5050592;28;20452;-46
2022/09/24 11:35:39;;;;;;;5.80;2.27;;;22.90;57.00;;;;;;5073127;28;20539;-45
2022/09/24 11:38:27;;;;;;;5.57;2.00;;;23.00;56.70;;;;;;4984614;28;20055;-44
2022/09/24 11:40:56;;;;;;;6.35;2.17;;;23.00;56.70;;;;;;5049732;28;20485;-45
2022/09/24 11:43:57;;;;;;;4.55;1.92;;;23.10;56.60;;;;;;5053565;28;20033;-48
2022/09/24 11:47:03;;;;;;;4.75;1.80;;;23.10;56.50;;;;;;5046917;28;20045;-41
2022/09/24 11:49:43;;;;;;;6.05;1.55;;;23.10;56.10;;;;;;5038802;28;20033;-43
2022/09/24 11:52:28;;;;;;;6.43;2.25;;;23.10;56.20;;;;;;5064976;28;20029;-46
2022/09/24 11:55:18;;;;;;;5.45;2.10;;;23.10;56.20;;;;;;5018850;28;20053;-47
2022/09/24 11:57:47;;;;;;;6.25;2.20;;;23.10;56.50;;;;;;5059048;28;20028;-46
2022/09/24 12:00:16;;;;;;;6.32;2.00;;;23.10;56.40;;;;;;5050665;28;20111;-45
2022/09/24 12:03:02;;;;;;;8.40;2.78;;;23.00;56.70;;;;;;5048660;28;20112;-46
2022/09/24 12:05:53;;;;;;;6.57;2.30;;;23.00;57.00;;;;;;5051264;28;20114;-48
2022/09/24 12:08:43;;;;;;;11.48;2.15;;;23.00;56.60;;;;;;5050640;28;20043;-49
2022/09/24 12:11:22;;;;;;;6.55;1.75;;;23.00;56.60;;;;;;5051051;28;20690;-44
2022/09/24 12:13:54;;;;;;;9.30;2.42;;;23.00;56.50;;;;;;5044205;28;20045;-45
2022/09/24 12:16:27;;;;;;;5.78;2.53;;;23.00;56.50;;;;;;5052183;28;20543;-59
2022/09/24 12:19:25;;;;;;;10.82;2.40;;;23.00;57.90;;;;;;5059683;28;20061;-47
2022/09/24 12:21:52;;;;;;;5.00;2.53;;;23.00;56.50;;;;;;5058883;28;20086;-46
2022/09/24 12:24:52;;;;;;;6.53;2.38;;;23.00;56.60;;;;;;5056615;28;20025;-49
2022/09/24 12:27:39;;;;;;;4.05;1.55;;;23.00;56.70;;;;;;5058386;28;20040;-49
2022/09/24 12:34:04;;;;;;;10.18;1.85;;;23.10;56.80;;;;;;5048904;28;20047;-49
2022/09/24 12:36:58;;;;;;;8.25;1.80;;;23.20;57.90;;;;;;4973022;28;20047;-49
2022/09/24 12:39:48;;;;;;;6.15;1.77;;;23.20;56.90;;;;;;5043812;28;20041;-44
2022/09/24 12:42:16;;;;;;;3.03;1.80;;;23.10;57.10;;;;;;5056116;28;20032;-51
2022/09/24 12:44:48;;;;;;;7.63;1.90;;;23.20;57.40;;;;;;5051854;28;20112;-49
2022/09/24 12:47:22;;;;;;;8.18;2.30;;;23.20;57.30;;;;;;5065102;28;20021;-52
2022/09/24 12:50:03;;;;;;;4.93;1.88;;;23.10;57.00;;;;;;5060572;28;20067;-48
2022/09/24 12:52:42;;;;;;;8.77;1.90;;;23.10;57.30;;;;;;5027828;28;20053;-49
2022/09/24 12:55:29;;;;;;;10.18;2.13;;;23.00;57.00;;;;;;5049306;28;20025;-50
2022/09/24 12:57:57;;;;;;;12.88;2.63;;;23.00;57.20;;;;;;5060305;28;20029;-46
2022/09/24 13:00:42;;;;;;;9.55;1.92;;;22.90;57.00;;;;;;5052432;28;20123;-50
2022/09/24 13:03:29;;;;;;;6.15;2.45;;;22.80;56.90;;;;;;5026157;28;20418;-51
2022/09/24 13:05:58;;;;;;;12.55;3.05;;;22.80;57.10;;;;;;5054253;28;20033;-51
2022/09/24 13:08:33;;;;;;;5.53;1.95;;;22.80;57.30;;;;;;5066719;28;20032;-49
2022/09/24 13:11:04;;;;;;;4.40;1.85;;;22.80;57.30;;;;;;5052738;28;20021;-52
2022/09/24 13:13:35;;;;;;;5.70;1.90;;;22.70;57.40;;;;;;5045217;28;20045;-50
2022/09/24 13:16:06;;;;;;;9.73;2.13;;;22.70;57.40;;;;;;5052766;28;20116;-50
2022/09/24 13:18:36;;;;;;;5.47;1.60;;;22.70;57.40;;;;;;5056061;28;20056;-51
2022/09/24 13:21:17;;;;;;;3.85;1.75;;;22.70;57.40;;;;;;5071993;28;20046;-51
2022/09/24 13:23:47;;;;;;;3.17;1.98;;;22.70;57.50;;;;;;5066677;28;20028;-51
2022/09/24 13:26:19;;;;;;;5.20;1.60;;;22.70;57.50;;;;;;5051034;28;20041;-50